sensor_id;sensor_type;location;lat;lon;timestamp;pressure;altitude;pressure_sealevel;temperature;humidity
40692;BME280;26377;53.344;14.886;2022-09-30T00:01:49;100695.96;;;6.78;71.54
40692;BME280;26377;53.344;14.886;2022-09-30T00:04:20;100702.50;;;6.80;71.56
40692;BME280;26377;53.344;14.886;2022-09-30T00:06:50;100699.86;;;6.80;71.58
40692;BME280;26377;53.344;14.886;2022-09-30T00:09:19;100703.77;;;6.81;71.58
40692;BME280;26377;53.344;14.886;2022-09-30T00:11:47;100702.50;;;6.80;71.58
40692;BME280;26377;53.344;14.886;2022-09-30T00:14:18;100708.11;;;6.82;71.63
40692;BME280;26377;53.344;14.886;2022-09-30T00:16:47;100710.70;;;6.84;71.67
40692;BME280;26377;53.344;14.886;2022-09-30T00:19:15;100715.05;;;6.85;71.70
40692;BME280;26377;53.344;14.886;2022-09-30T00:21:42;100712.84;;;6.86;71.74
40692;BME280;26377;53.344;14.886;2022-09-30T00:24:10;100718.95;;;6.86;71.80
40692;BME280;26377;53.344;14.886;2022-09-30T00:26:38;100719.77;;;6.88;71.84
40692;BME280;26377;53.344;14.886;2022-09-30T00:29:06;100723.64;;;6.90;71.91
40692;BME280;26377;53.344;14.886;2022-09-30T00:31:34;100727.10;;;6.92;71.92
40692;BME280;26377;53.344;14.886;2022-09-30T00:34:02;100723.54;;;6.93;71.91
40692;BME280;26377;53.344;14.886;2022-09-30T00:36:39;100726.17;;;6.93;71.97
40692;BME280;26377;53.344;14.886;2022-09-30T00:39:18;100722.22;;;6.93;71.97
40692;BME280;26377;53.344;14.886;2022-09-30T00:41:46;100722.70;;;6.92;71.93
40692;BME280;26377;53.344;14.886;2022-09-30T00:44:53;100718.32;;;6.91;71.99
40692;BME280;26377;53.344;14.886;2022-09-30T00:47:39;100724.97;;;6.90;72.04
40692;BME280;26377;53.344;14.886;2022-09-30T00:50:21;100724.97;;;6.90;72.08
40692;BME280;26377;53.344;14.886;2022-09-30T00:53:11;100726.37;;;6.88;72.12
40692;BME280;26377;53.344;14.886;2022-09-30T00:56:06;100726.81;;;6.88;72.17
40692;BME280;26377;53.344;14.886;2022-09-30T01:01:31;100735.25;;;6.86;72.23
40692;BME280;26377;53.344;14.886;2022-09-30T01:04:09;100735.30;;;6.84;72.29
40692;BME280;26377;53.344;14.886;2022-09-30T01:06:38;100733.98;;;6.84;72.30
40692;BME280;26377;53.344;14.886;2022-09-30T01:09:05;100734.43;;;6.84;72.37
40692;BME280;26377;53.344;14.886;2022-09-30T01:11:33;100728.81;;;6.81;72.33
40692;BME280;26377;53.344;14.886;2022-09-30T01:14:05;100734.09;;;6.81;72.40
40692;BME280;26377;53.344;14.886;2022-09-30T01:29:24;100716.16;;;6.79;72.70
40692;BME280;26377;53.344;14.886;2022-09-30T01:38:15;100727.34;;;6.74;72.65
40692;BME280;26377;53.344;14.886;2022-09-30T01:40:48;100729.16;;;6.72;72.64
40692;BME280;26377;53.344;14.886;2022-09-30T01:49:11;100740.38;;;6.66;72.69
40692;BME280;26377;53.344;14.886;2022-09-30T01:57:20;100728.35;;;6.59;72.74
40692;BME280;26377;53.344;14.886;2022-09-30T02:00:04;100737.23;;;6.56;72.73
40692;BME280;26377;53.344;14.886;2022-09-30T02:02:39;100733.77;;;6.54;72.80
40692;BME280;26377;53.344;14.886;2022-09-30T02:08:05;100736.45;;;6.53;72.89
40692;BME280;26377;53.344;14.886;2022-09-30T02:10:52;100745.77;;;6.51;72.88
40692;BME280;26377;53.344;14.886;2022-09-30T02:13:29;100748.40;;;6.51;72.93
40692;BME280;26377;53.344;14.886;2022-09-30T02:16:00;100743.05;;;6.53;73.00
40692;BME280;26377;53.344;14.886;2022-09-30T02:18:37;100743.00;;;6.54;73.18
40692;BME280;26377;53.344;14.886;2022-09-30T02:21:06;100736.70;;;6.58;73.24
40692;BME280;26377;53.344;14.886;2022-09-30T02:23:38;100743.20;;;6.61;73.33
40692;BME280;26377;53.344;14.886;2022-09-30T02:26:22;100741.83;;;6.63;73.35
40692;BME280;26377;53.344;14.886;2022-09-30T02:29:19;100747.89;;;6.65;73.36
40692;BME280;26377;53.344;14.886;2022-09-30T02:31:52;100743.89;;;6.66;73.37
40692;BME280;26377;53.344;14.886;2022-09-30T02:34:34;100749.16;;;6.66;73.34
40692;BME280;26377;53.344;14.886;2022-09-30T02:37:15;100756.59;;;6.67;73.42
40692;BME280;26377;53.344;14.886;2022-09-30T02:39:50;100754.38;;;6.68;73.44
40692;BME280;26377;53.344;14.886;2022-09-30T02:42:26;100754.38;;;6.68;73.38
40692;BME280;26377;53.344;14.886;2022-09-30T02:44:54;100759.70;;;6.66;73.26
40692;BME280;26377;53.344;14.886;2022-09-30T02:50:33;100765.47;;;6.64;73.16
40692;BME280;26377;53.344;14.886;2022-09-30T02:58:53;100766.42;;;6.50;73.04
40692;BME280;26377;53.344;14.886;2022-09-30T03:01:23;100764.41;;;6.45;73.03
40692;BME280;26377;53.344;14.886;2022-09-30T03:06:26;100765.55;;;6.38;73.02
40692;BME280;26377;53.344;14.886;2022-09-30T03:08:54;100769.55;;;6.37;73.02
40692;BME280;26377;53.344;14.886;2022-09-30T03:11:23;100771.05;;;6.32;73.03
40692;BME280;26377;53.344;14.886;2022-09-30T03:23:08;100771.05;;;6.19;72.97
40692;BME280;26377;53.344;14.886;2022-09-30T03:25:58;100771.67;;;6.14;72.98
40692;BME280;26377;53.344;14.886;2022-09-30T03:28:29;100776.16;;;6.11;72.99
40692;BME280;26377;53.344;14.886;2022-09-30T03:31:10;100773.21;;;6.07;72.97
40692;BME280;26377;53.344;14.886;2022-09-30T03:34:07;100772.02;;;6.04;72.95
40692;BME280;26377;53.344;14.886;2022-09-30T03:36:40;100773.47;;;5.99;72.98
40692;BME280;26377;53.344;14.886;2022-09-30T03:42:17;100789.09;;;5.92;72.91
40692;BME280;26377;53.344;14.886;2022-09-30T03:47:43;100787.14;;;5.84;72.99
40692;BME280;26377;53.344;14.886;2022-09-30T03:50:13;100792.05;;;5.82;73.06
40692;BME280;26377;53.344;14.886;2022-09-30T03:52:44;100796.92;;;5.81;73.18
40692;BME280;26377;53.344;14.886;2022-09-30T03:55:12;100799.08;;;5.81;73.22
40692;BME280;26377;53.344;14.886;2022-09-30T03:57:41;100799.52;;;5.82;73.26
40692;BME280;26377;53.344;14.886;2022-09-30T04:00:11;100798.20;;;5.82;73.30
40692;BME280;26377;53.344;14.886;2022-09-30T04:02:39;100796.01;;;5.82;73.36
40692;BME280;26377;53.344;14.886;2022-09-30T04:05:07;100798.16;;;5.84;73.45
40692;BME280;26377;53.344;14.886;2022-09-30T04:07:35;100804.34;;;5.81;73.32
40692;BME280;26377;53.344;14.886;2022-09-30T04:10:03;100803.11;;;5.78;73.25
40692;BME280;26377;53.344;14.886;2022-09-30T04:12:31;100801.48;;;5.74;73.22
40692;BME280;26377;53.344;14.886;2022-09-30T04:14:58;100803.77;;;5.72;73.19
40692;BME280;26377;53.344;14.886;2022-09-30T04:17:26;100809.11;;;5.69;73.15
40692;BME280;26377;53.344;14.886;2022-09-30T04:19:53;100807.03;;;5.65;73.20
40692;BME280;26377;53.344;14.886;2022-09-30T04:22:21;100804.92;;;5.63;73.22
40692;BME280;26377;53.344;14.886;2022-09-30T04:24:48;100803.25;;;5.61;73.23
40692;BME280;26377;53.344;14.886;2022-09-30T04:27:16;100809.91;;;5.58;73.25
40692;BME280;26377;53.344;14.886;2022-09-30T04:29:43;100811.78;;;5.54;73.19
40692;BME280;26377;53.344;14.886;2022-09-30T04:32:10;100812.74;;;5.52;73.16
40692;BME280;26377;53.344;14.886;2022-09-30T04:34:38;100814.54;;;5.50;73.21
40692;BME280;26377;53.344;14.886;2022-09-30T04:37:05;100819.44;;;5.47;73.10
40692;BME280;26377;53.344;14.886;2022-09-30T04:39:32;100821.75;;;5.43;73.07
40692;BME280;26377;53.344;14.886;2022-09-30T04:42:00;100824.94;;;5.40;73.03
40692;BME280;26377;53.344;14.886;2022-09-30T04:44:27;100820.27;;;5.35;73.04
40692;BME280;26377;53.344;14.886;2022-09-30T04:46:55;100828.72;;;5.31;73.02
40692;BME280;26377;53.344;14.886;2022-09-30T04:49:23;100832.30;;;5.29;73.05
40692;BME280;26377;53.344;14.886;2022-09-30T04:51:50;100831.47;;;5.27;73.06
40692;BME280;26377;53.344;14.886;2022-09-30T04:54:18;100832.93;;;5.22;72.99
40692;BME280;26377;53.344;14.886;2022-09-30T04:56:47;100831.66;;;5.21;73.10
40692;BME280;26377;53.344;14.886;2022-09-30T04:59:15;100832.24;;;5.16;72.97
40692;BME280;26377;53.344;14.886;2022-09-30T05:01:43;100837.98;;;5.14;73.02
40692;BME280;26377;53.344;14.886;2022-09-30T05:04:10;100840.20;;;5.13;73.10
40692;BME280;26377;53.344;14.886;2022-09-30T05:06:39;100841.48;;;5.14;73.27
40692;BME280;26377;53.344;14.886;2022-09-30T05:09:07;100843.56;;;5.18;73.36
40692;BME280;26377;53.344;14.886;2022-09-30T05:11:34;100845.35;;;5.17;73.38
40692;BME280;26377;53.344;14.886;2022-09-30T05:14:07;100844.84;;;5.19;73.34
40692;BME280;26377;53.344;14.886;2022-09-30T05:16:35;100854.92;;;5.20;73.33
40692;BME280;26377;53.344;14.886;2022-09-30T05:19:03;100861.42;;;5.21;73.41
40692;BME280;26377;53.344;14.886;2022-09-30T05:21:31;100851.70;;;5.25;73.53
40692;BME280;26377;53.344;14.886;2022-09-30T05:23:58;100858.09;;;5.31;73.57
40692;BME280;26377;53.344;14.886;2022-09-30T05:26:25;100854.51;;;5.33;73.64
40692;BME280;26377;53.344;14.886;2022-09-30T05:28:53;100860.57;;;5.35;73.61
40692;BME280;26377;53.344;14.886;2022-09-30T05:31:20;100864.52;;;5.35;73.59
40692;BME280;26377;53.344;14.886;2022-09-30T05:33:47;100866.27;;;5.36;73.53
40692;BME280;26377;53.344;14.886;2022-09-30T05:36:15;100861.45;;;5.36;73.50
40692;BME280;26377;53.344;14.886;2022-09-30T05:38:43;100863.59;;;5.38;73.59
40692;BME280;26377;53.344;14.886;2022-09-30T05:41:12;100867.03;;;5.40;73.61
40692;BME280;26377;53.344;14.886;2022-09-30T05:43:41;100868.31;;;5.41;73.61
40692;BME280;26377;53.344;14.886;2022-09-30T05:46:11;100875.25;;;5.44;73.68
40692;BME280;26377;53.344;14.886;2022-09-30T05:48:38;100874.62;;;5.50;73.83
40692;BME280;26377;53.344;14.886;2022-09-30T05:51:05;100876.61;;;5.57;73.88
40692;BME280;26377;53.344;14.886;2022-09-30T05:53:34;100879.05;;;5.63;73.94
40692;BME280;26377;53.344;14.886;2022-09-30T05:56:06;100884.08;;;5.70;74.00
40692;BME280;26377;53.344;14.886;2022-09-30T05:58:34;100890.42;;;5.78;74.13
40692;BME280;26377;53.344;14.886;2022-09-30T06:01:05;100900.35;;;5.84;74.21
40692;BME280;26377;53.344;14.886;2022-09-30T06:03:38;100901.83;;;5.93;74.37
40692;BME280;26377;53.344;14.886;2022-09-30T06:06:05;100898.83;;;6.05;74.56
40692;BME280;26377;53.344;14.886;2022-09-30T06:08:33;100903.64;;;6.18;74.67
40692;BME280;26377;53.344;14.886;2022-09-30T06:11:00;100903.66;;;6.31;74.69
40692;BME280;26377;53.344;14.886;2022-09-30T06:13:27;100911.84;;;6.37;74.54
40692;BME280;26377;53.344;14.886;2022-09-30T06:15:59;100912.50;;;6.43;74.64
40692;BME280;26377;53.344;14.886;2022-09-30T06:18:28;100913.52;;;6.52;74.74
40692;BME280;26377;53.344;14.886;2022-09-30T06:20:58;100916.64;;;6.63;74.83
40692;BME280;26377;53.344;14.886;2022-09-30T06:23:28;100918.93;;;6.74;74.89
40692;BME280;26377;53.344;14.886;2022-09-30T06:25:56;100919.89;;;6.84;74.87
40692;BME280;26377;53.344;14.886;2022-09-30T06:28:24;100923.92;;;6.94;74.95
40692;BME280;26377;53.344;14.886;2022-09-30T06:30:55;100922.55;;;7.09;75.07
40692;BME280;26377;53.344;14.886;2022-09-30T06:33:22;100923.31;;;7.24;75.15
40692;BME280;26377;53.344;14.886;2022-09-30T06:35:51;100921.03;;;7.38;75.22
40692;BME280;26377;53.344;14.886;2022-09-30T06:38:18;100922.66;;;7.53;75.20
40692;BME280;26377;53.344;14.886;2022-09-30T06:40:49;100919.48;;;7.67;75.22
40692;BME280;26377;53.344;14.886;2022-09-30T06:43:17;100923.78;;;7.81;75.19
40692;BME280;26377;53.344;14.886;2022-09-30T06:45:46;100927.73;;;7.92;75.11
40692;BME280;26377;53.344;14.886;2022-09-30T06:48:18;100930.84;;;8.03;75.13
40692;BME280;26377;53.344;14.886;2022-09-30T06:50:45;100929.08;;;8.14;75.03
40692;BME280;26377;53.344;14.886;2022-09-30T06:53:12;100932.83;;;8.20;74.98
40692;BME280;26377;53.344;14.886;2022-09-30T06:55:40;100939.95;;;8.29;74.97
40692;BME280;26377;53.344;14.886;2022-09-30T06:58:12;100937.42;;;8.38;74.97
40692;BME280;26377;53.344;14.886;2022-09-30T07:00:40;100940.36;;;8.52;74.98
40692;BME280;26377;53.344;14.886;2022-09-30T07:03:10;100951.02;;;8.60;74.88
40692;BME280;26377;53.344;14.886;2022-09-30T07:05:41;100954.21;;;8.68;74.97
40692;BME280;26377;53.344;14.886;2022-09-30T07:08:08;100955.01;;;8.80;74.97
40692;BME280;26377;53.344;14.886;2022-09-30T07:10:38;100953.06;;;8.95;75.09
40692;BME280;26377;53.344;14.886;2022-09-30T07:13:07;100952.73;;;9.13;75.11
40692;BME280;26377;53.344;14.886;2022-09-30T07:15:36;100948.03;;;9.29;75.14
40692;BME280;26377;53.344;14.886;2022-09-30T07:18:03;100951.26;;;9.46;75.09
40692;BME280;26377;53.344;14.886;2022-09-30T07:20:31;100956.41;;;9.59;75.03
40692;BME280;26377;53.344;14.886;2022-09-30T07:22:58;100957.91;;;9.64;74.88
40692;BME280;26377;53.344;14.886;2022-09-30T07:25:25;100960.75;;;9.70;74.71
40692;BME280;26377;53.344;14.886;2022-09-30T07:27:53;100963.47;;;9.78;74.80
40692;BME280;26377;53.344;14.886;2022-09-30T07:30:21;100968.25;;;9.89;74.69
40692;BME280;26377;53.344;14.886;2022-09-30T07:32:49;100963.59;;;9.94;74.54
40692;BME280;26377;53.344;14.886;2022-09-30T07:35:18;100966.05;;;9.98;74.48
40692;BME280;26377;53.344;14.886;2022-09-30T07:37:45;100967.44;;;10.07;74.37
40692;BME280;26377;53.344;14.886;2022-09-30T07:40:13;100970.15;;;10.15;74.30
40692;BME280;26377;53.344;14.886;2022-09-30T07:42:40;100965.73;;;10.24;74.26
40692;BME280;26377;53.344;14.886;2022-09-30T07:45:10;100973.03;;;10.38;74.33
40692;BME280;26377;53.344;14.886;2022-09-30T07:47:39;100968.99;;;10.48;74.14
40692;BME280;26377;53.344;14.886;2022-09-30T07:50:10;100974.86;;;10.54;73.92
40692;BME280;26377;53.344;14.886;2022-09-30T07:52:41;100975.36;;;10.62;73.95
40692;BME280;26377;53.344;14.886;2022-09-30T07:55:08;100976.87;;;10.76;74.06
40692;BME280;26377;53.344;14.886;2022-09-30T07:57:38;100976.97;;;10.92;74.02
40692;BME280;26377;53.344;14.886;2022-09-30T08:00:06;100981.27;;;11.03;73.88
40692;BME280;26377;53.344;14.886;2022-09-30T08:02:36;100980.03;;;11.35;74.14
40692;BME280;26377;53.344;14.886;2022-09-30T08:05:03;100980.03;;;11.35;74.14
40692;BME280;26377;53.344;14.886;2022-09-30T08:07:33;100980.78;;;11.46;73.71
40692;BME280;26377;53.344;14.886;2022-09-30T08:10:05;100978.90;;;11.56;73.56
40692;BME280;26377;53.344;14.886;2022-09-30T08:12:32;100983.23;;;11.67;73.51
40692;BME280;26377;53.344;14.886;2022-09-30T08:15:00;100984.19;;;11.82;73.56
40692;BME280;26377;53.344;14.886;2022-09-30T08:17:27;100982.91;;;11.97;73.42
40692;BME280;26377;53.344;14.886;2022-09-30T08:19:55;100989.28;;;12.10;73.22
40692;BME280;26377;53.344;14.886;2022-09-30T08:22:23;100982.97;;;12.20;73.13
40692;BME280;26377;53.344;14.886;2022-09-30T08:24:50;100982.30;;;12.32;73.00
40692;BME280;26377;53.344;14.886;2022-09-30T08:27:19;100981.06;;;12.46;73.00
40692;BME280;26377;53.344;14.886;2022-09-30T08:29:46;100986.84;;;12.61;72.98
40692;BME280;26377;53.344;14.886;2022-09-30T08:32:14;100984.73;;;12.74;72.79
40692;BME280;26377;53.344;14.886;2022-09-30T08:34:43;100988.50;;;12.86;72.65
40692;BME280;26377;53.344;14.886;2022-09-30T08:37:10;100996.67;;;12.99;72.57
40692;BME280;26377;53.344;14.886;2022-09-30T08:39:37;100988.73;;;13.13;72.46
40692;BME280;26377;53.344;14.886;2022-09-30T08:42:27;100995.89;;;13.26;72.36
40692;BME280;26377;53.344;14.886;2022-09-30T08:45:28;100993.09;;;13.43;72.32
40692;BME280;26377;53.344;14.886;2022-09-30T08:48:15;100991.23;;;13.59;72.06
40692;BME280;26377;53.344;14.886;2022-09-30T08:51:01;100996.95;;;13.74;71.91
40692;BME280;26377;53.344;14.886;2022-09-30T08:53:39;101002.77;;;13.88;71.72
40692;BME280;26377;53.344;14.886;2022-09-30T08:56:11;101009.44;;;14.02;71.73
40692;BME280;26377;53.344;14.886;2022-09-30T08:58:44;101009.15;;;14.13;71.46
40692;BME280;26377;53.344;14.886;2022-09-30T09:03:59;101016.22;;;14.35;71.13
40692;BME280;26377;53.344;14.886;2022-09-30T09:09:32;101013.72;;;14.53;70.33
40692;BME280;26377;53.344;14.886;2022-09-30T09:12:25;101015.89;;;14.61;70.33
40692;BME280;26377;53.344;14.886;2022-09-30T09:20:45;101019.31;;;14.96;69.87
40692;BME280;26377;53.344;14.886;2022-09-30T09:23:13;101023.95;;;15.07;69.65
40692;BME280;26377;53.344;14.886;2022-09-30T09:25:44;101024.36;;;15.20;69.49
40692;BME280;26377;53.344;14.886;2022-09-30T09:28:34;101022.81;;;15.30;69.32
40692;BME280;26377;53.344;14.886;2022-09-30T09:31:04;101020.39;;;15.40;69.04
40692;BME280;26377;53.344;14.886;2022-09-30T09:33:37;101027.79;;;15.49;68.70
40692;BME280;26377;53.344;14.886;2022-09-30T09:45:03;101024.57;;;15.76;67.91
40692;BME280;26377;53.344;14.886;2022-09-30T09:47:33;101013.80;;;15.83;67.62
40692;BME280;26377;53.344;14.886;2022-09-30T09:50:02;101015.10;;;15.90;67.53
40692;BME280;26377;53.344;14.886;2022-09-30T09:52:48;101019.91;;;15.97;67.26
40692;BME280;26377;53.344;14.886;2022-09-30T09:55:25;101016.80;;;16.03;67.08
40692;BME280;26377;53.344;14.886;2022-09-30T09:58:08;101014.95;;;16.11;66.81
40692;BME280;26377;53.344;14.886;2022-09-30T10:00:39;101014.88;;;16.18;66.61
40692;BME280;26377;53.344;14.886;2022-09-30T10:03:19;101009.84;;;16.26;66.43
40692;BME280;26377;53.344;14.886;2022-09-30T10:06:05;101006.77;;;16.37;66.38
40692;BME280;26377;53.344;14.886;2022-09-30T10:08:35;101013.67;;;16.47;66.10
40692;BME280;26377;53.344;14.886;2022-09-30T10:11:16;101005.17;;;16.65;65.87
40692;BME280;26377;53.344;14.886;2022-09-30T10:13:57;101005.17;;;16.65;65.87
40692;BME280;26377;53.344;14.886;2022-09-30T10:19:28;101009.17;;;16.83;65.37
40692;BME280;26377;53.344;14.886;2022-09-30T10:21:48;101009.73;;;16.99;65.38
40692;BME280;26377;53.344;14.886;2022-09-30T10:24:30;101012.35;;;17.12;65.16
40692;BME280;26377;53.344;14.886;2022-09-30T10:26:59;101005.61;;;17.24;65.00
40692;BME280;26377;53.344;14.886;2022-09-30T10:29:32;101005.81;;;17.39;64.84
40692;BME280;26377;53.344;14.886;2022-09-30T10:32:05;101000.86;;;17.51;64.61
40692;BME280;26377;53.344;14.886;2022-09-30T10:34:39;100998.17;;;17.57;64.24
40692;BME280;26377;53.344;14.886;2022-09-30T10:37:13;100993.55;;;17.64;63.90
40692;BME280;26377;53.344;14.886;2022-09-30T10:39:43;100996.98;;;17.72;63.63
40692;BME280;26377;53.344;14.886;2022-09-30T10:42:25;100992.62;;;17.76;63.54
40692;BME280;26377;53.344;14.886;2022-09-30T10:45:00;100993.13;;;17.87;63.45
40692;BME280;26377;53.344;14.886;2022-09-30T10:47:36;100990.80;;;17.99;63.23
40692;BME280;26377;53.344;14.886;2022-09-30T10:50:12;100990.08;;;18.08;62.92
40692;BME280;26377;53.344;14.886;2022-09-30T10:52:52;100983.26;;;18.15;62.80
40692;BME280;26377;53.344;14.886;2022-09-30T10:55:35;100989.00;;;18.21;62.38
40692;BME280;26377;53.344;14.886;2022-09-30T11:04:24;100973.14;;;18.40;61.65
40692;BME280;26377;53.344;14.886;2022-09-30T11:13:16;100987.62;;;18.65;60.63
40692;BME280;26377;53.344;14.886;2022-09-30T11:19:50;100982.32;;;18.86;60.13
40692;BME280;26377;53.344;14.886;2022-09-30T11:21:59;100980.22;;;18.89;59.72
40692;BME280;26377;53.344;14.886;2022-09-30T11:24:44;100980.09;;;18.96;59.64
40692;BME280;26377;53.344;14.886;2022-09-30T11:41:46;100952.33;;;19.53;57.69
40692;BME280;26377;53.344;14.886;2022-09-30T11:44:38;100957.45;;;19.56;57.28
40692;BME280;26377;53.344;14.886;2022-09-30T11:50:15;100960.22;;;19.66;56.65
40692;BME280;26377;53.344;14.886;2022-09-30T11:58:48;100955.55;;;19.98;56.16
40692;BME280;26377;53.344;14.886;2022-09-30T12:01:41;100948.66;;;20.10;55.85
40692;BME280;26377;53.344;14.886;2022-09-30T12:04:21;100951.56;;;20.13;55.39
40692;BME280;26377;53.344;14.886;2022-09-30T12:12:25;100936.52;;;20.35;54.64
40692;BME280;26377;53.344;14.886;2022-09-30T12:14:59;100937.34;;;20.41;54.21
40692;BME280;26377;53.344;14.886;2022-09-30T12:17:43;100939.60;;;20.45;53.88
40692;BME280;26377;53.344;14.886;2022-09-30T12:20:30;100935.37;;;20.52;53.73
40692;BME280;26377;53.344;14.886;2022-09-30T12:23:21;100935.98;;;20.65;53.54
40692;BME280;26377;53.344;14.886;2022-09-30T12:26:00;100939.45;;;20.71;53.13
40692;BME280;26377;53.344;14.886;2022-09-30T12:38:16;100936.22;;;20.87;51.96
40692;BME280;26377;53.344;14.886;2022-09-30T12:41:19;100932.86;;;20.89;51.68
40692;BME280;26377;53.344;14.886;2022-09-30T12:47:36;100937.97;;;20.97;51.20
40692;BME280;26377;53.344;14.886;2022-09-30T12:50:16;100943.41;;;21.01;50.97
40692;BME280;26377;53.344;14.886;2022-09-30T12:52:47;100945.69;;;21.06;50.80
40692;BME280;26377;53.344;14.886;2022-09-30T12:55:29;100943.91;;;21.10;50.67
40692;BME280;26377;53.344;14.886;2022-09-30T12:57:54;100945.25;;;21.10;50.29
40692;BME280;26377;53.344;14.886;2022-09-30T13:00:29;100941.28;;;21.14;50.12
40692;BME280;26377;53.344;14.886;2022-09-30T13:03:04;100942.94;;;21.11;49.71
40692;BME280;26377;53.344;14.886;2022-09-30T13:05:46;100939.38;;;21.11;49.56
40692;BME280;26377;53.344;14.886;2022-09-30T13:08:23;100936.60;;;21.07;49.22
40692;BME280;26377;53.344;14.886;2022-09-30T13:10:59;100942.44;;;21.02;49.04
40692;BME280;26377;53.344;14.886;2022-09-30T13:13:33;100937.60;;;21.06;48.99
40692;BME280;26377;53.344;14.886;2022-09-30T13:16:02;100935.46;;;21.09;48.73
40692;BME280;26377;53.344;14.886;2022-09-30T13:23:52;100931.35;;;21.15;48.24
40692;BME280;26377;53.344;14.886;2022-09-30T13:31:31;100936.23;;;21.15;47.66
40692;BME280;26377;53.344;14.886;2022-09-30T13:34:33;100930.42;;;21.20;47.77
40692;BME280;26377;53.344;14.886;2022-09-30T13:37:04;100935.66;;;21.31;47.70
40692;BME280;26377;53.344;14.886;2022-09-30T13:50:21;100942.69;;;21.37;47.17
40692;BME280;26377;53.344;14.886;2022-09-30T13:52:54;100938.30;;;21.36;46.78
40692;BME280;26377;53.344;14.886;2022-09-30T13:55:44;100935.24;;;21.35;46.65
40692;BME280;26377;53.344;14.886;2022-09-30T14:16:09;100937.89;;;21.12;45.81
40692;BME280;26377;53.344;14.886;2022-09-30T14:21:52;100940.52;;;21.08;45.70
40692;BME280;26377;53.344;14.886;2022-09-30T14:24:26;100940.36;;;21.00;45.50
40692;BME280;26377;53.344;14.886;2022-09-30T14:27:18;100936.83;;;21.00;45.43
40692;BME280;26377;53.344;14.886;2022-09-30T14:30:12;100940.66;;;20.97;45.36
40692;BME280;26377;53.344;14.886;2022-09-30T14:33:00;100944.42;;;20.91;45.26
40692;BME280;26377;53.344;14.886;2022-09-30T14:35:30;100945.79;;;20.85;45.30
40692;BME280;26377;53.344;14.886;2022-09-30T14:40:53;100946.14;;;20.77;45.24
40692;BME280;26377;53.344;14.886;2022-09-30T14:43:28;100949.37;;;20.71;45.06
40692;BME280;26377;53.344;14.886;2022-09-30T14:46:01;100953.13;;;20.64;44.89
40692;BME280;26377;53.344;14.886;2022-09-30T14:48:37;100955.03;;;20.58;44.87
40692;BME280;26377;53.344;14.886;2022-09-30T14:51:09;100948.34;;;20.53;44.77
40692;BME280;26377;53.344;14.886;2022-09-30T14:53:58;100946.98;;;20.43;44.77
40692;BME280;26377;53.344;14.886;2022-09-30T14:56:32;100951.50;;;20.33;44.69
40692;BME280;26377;53.344;14.886;2022-09-30T15:01:53;100949.36;;;20.12;44.73
40692;BME280;26377;53.344;14.886;2022-09-30T15:04:32;100947.34;;;19.99;44.77
40692;BME280;26377;53.344;14.886;2022-09-30T15:07:02;100946.64;;;19.82;44.73
40692;BME280;26377;53.344;14.886;2022-09-30T15:09:36;100944.55;;;19.65;44.74
40692;BME280;26377;53.344;14.886;2022-09-30T15:12:17;100946.84;;;19.49;44.64
40692;BME280;26377;53.344;14.886;2022-09-30T15:14:56;100950.85;;;19.34;44.73
40692;BME280;26377;53.344;14.886;2022-09-30T15:17:28;100950.42;;;19.18;44.78
40692;BME280;26377;53.344;14.886;2022-09-30T15:20:31;100951.09;;;19.05;44.85
40692;BME280;26377;53.344;14.886;2022-09-30T15:23:02;100956.77;;;18.91;44.99
40692;BME280;26377;53.344;14.886;2022-09-30T15:25:32;100955.48;;;18.75;45.18
40692;BME280;26377;53.344;14.886;2022-09-30T15:27:59;100956.75;;;18.60;45.30
40692;BME280;26377;53.344;14.886;2022-09-30T15:30:28;100958.34;;;18.46;45.41
40692;BME280;26377;53.344;14.886;2022-09-30T15:32:57;100956.16;;;18.34;45.50
40692;BME280;26377;53.344;14.886;2022-09-30T15:35:28;100970.20;;;18.21;45.66
40692;BME280;26377;53.344;14.886;2022-09-30T15:38:06;100979.46;;;17.84;46.41
40692;BME280;26377;53.344;14.886;2022-09-30T15:40:36;100979.46;;;17.84;46.41
40692;BME280;26377;53.344;14.886;2022-09-30T15:46:32;100980.11;;;17.42;46.67
40692;BME280;26377;53.344;14.886;2022-09-30T15:49:01;100975.36;;;17.17;46.96
40692;BME280;26377;53.344;14.886;2022-09-30T15:54:29;100981.36;;;16.73;47.46
40692;BME280;26377;53.344;14.886;2022-09-30T15:57:02;100981.79;;;16.49;47.73
40692;BME280;26377;53.344;14.886;2022-09-30T15:59:58;100978.44;;;16.28;47.99
40692;BME280;26377;53.344;14.886;2022-09-30T16:02:30;100978.81;;;16.11;48.25
40692;BME280;26377;53.344;14.886;2022-09-30T16:05:01;100975.84;;;15.90;48.56
40692;BME280;26377;53.344;14.886;2022-09-30T16:07:30;100974.45;;;15.72;48.81
40692;BME280;26377;53.344;14.886;2022-09-30T16:09:59;100979.50;;;15.57;49.05
40692;BME280;26377;53.344;14.886;2022-09-30T16:12:28;100988.21;;;15.41;49.33
40692;BME280;26377;53.344;14.886;2022-09-30T16:15:08;100988.18;;;15.22;49.55
40692;BME280;26377;53.344;14.886;2022-09-30T16:17:44;100985.67;;;15.06;49.78
40692;BME280;26377;53.344;14.886;2022-09-30T16:22:49;100985.52;;;14.76;50.25
40692;BME280;26377;53.344;14.886;2022-09-30T16:25:25;100979.10;;;14.59;50.44
40692;BME280;26377;53.344;14.886;2022-09-30T16:28:10;100980.07;;;14.44;50.66
40692;BME280;26377;53.344;14.886;2022-09-30T16:30:47;100977.92;;;14.29;50.86
40692;BME280;26377;53.344;14.886;2022-09-30T16:33:16;100979.42;;;14.12;51.07
40692;BME280;26377;53.344;14.886;2022-09-30T16:35:45;100985.23;;;13.98;51.32
40692;BME280;26377;53.344;14.886;2022-09-30T16:38:14;100979.90;;;13.84;51.50